This is the latest recevied weather packets stored in our database for station/object IZ7XUV. If no packets are shown the sender has not sent any weather packets the latest 10 day(s).
| Time | Temp. | Humidity | Pressure | Rain* | Wind** | Luminosity | Snow |
|---|---|---|---|---|---|---|---|
| 1777795536 | 19.44° C | 46% | 1019.8 hPa | 0 mm | - | 565 W/m² | - |
| 1777794927 | 19.44° C | 48% | 1019.9 hPa | 0 mm | - | 541 W/m² | - |
| 1777791327 | 18.33° C | 46% | 1019.9 hPa | 0 mm | - | 380 W/m² | - |
| 1777790168 | 18.33° C | 42% | 1019.9 hPa | 0 mm | - | 319 W/m² | - |
| 1777788338 | 17.78° C | 42% | 1019.8 hPa | 0 mm | - | 230 W/m² | - |
| 1777787118 | 16.67° C | 43% | 1019.8 hPa | 0 mm | - | 171 W/m² | - |
| 1777786569 | 16.67° C | 43% | 1019.6 hPa | 0 mm | - | 144 W/m² | - |
| 1777784739 | 16.11° C | 44% | 1019.5 hPa | 0 mm | - | 78 W/m² | - |
| 1777784130 | 15.56° C | 45% | 1019.5 hPa | 0 mm | - | 61 W/m² | - |
| 1777783520 | 15° C | 46% | 1019.5 hPa | 0 mm | - | 46 W/m² | - |
| 1777781751 | 14.44° C | 48% | 1019.6 hPa | 0 mm | - | 15 W/m² | - |
| 1777779920 | 14.44° C | 47% | 1019.3 hPa | 0 mm | - | 1 W/m² | - |
| 1777775793 | 14.44° C | 47% | 1019.7 hPa | 0 mm | - | 0 W/m² | - |
| 1777768574 | 14.44° C | 50% | 1020.4 hPa | 0 mm | - | 0 W/m² | - |
| 1777767354 | 13.89° C | 50% | 1020.5 hPa | 0 mm | - | 0 W/m² | - |
| 1777755338 | 12.78° C | 65% | 1022.1 hPa | 0 mm | - | 0 W/m² | - |
| 1777745150 | 16.11° C | 62% | 1021.8 hPa | 0 mm | - | 1 W/m² | - |
| 1777741551 | 17.22° C | 57% | 1021.7 hPa | 0 mm | - | 34 W/m² | - |
| 1777737362 | 17.78° C | 49% | 1021.9 hPa | 0 mm | - | 159 W/m² | - |
| 1777732563 | 18.33° C | 45% | 1022.5 hPa | 0 mm | - | 405 W/m² | - |
| 1777727154 | 18.89° C | 50% | 1023.1 hPa | 0 mm | - | 617 W/m² | - |
| 1777720566 | 18.33° C | 42% | 1023.3 hPa | 0 mm | - | 751 W/m² | - |
| 1777718127 | 18.33° C | 41% | 1023.8 hPa | 0 mm | - | 757 W/m² | - |
| 1777709180 | 17.78° C | 45% | 1023.7 hPa | 0 mm | - | 562 W/m² | - |
| 1777706739 | 17.22° C | 44% | 1023.6 hPa | 0 mm | - | 480 W/m² | - |
* Rain latest hour (hover to see other rain measurements)
** Current wind speed in m/s (hover to see current wind gust speed)